sensor_id;sensor_type;location;lat;lon;timestamp;P1;durP1;ratioP1;P2;durP2;ratioP2
20417;SDS011;10368;51.436;6.774;2024-01-06T00:00:24;14.57;;;10.47;;
20417;SDS011;10368;51.436;6.774;2024-01-06T00:02:51;16.77;;;11.60;;
20417;SDS011;10368;51.436;6.774;2024-01-06T00:05:18;19.83;;;11.47;;
20417;SDS011;10368;51.436;6.774;2024-01-06T00:07:45;23.77;;;12.70;;
20417;SDS011;10368;51.436;6.774;2024-01-06T00:10:12;18.10;;;12.27;;
20417;SDS011;10368;51.436;6.774;2024-01-06T00:12:43;18.40;;;11.87;;
20417;SDS011;10368;51.436;6.774;2024-01-06T00:15:10;21.40;;;11.80;;
20417;SDS011;10368;51.436;6.774;2024-01-06T00:17:37;21.43;;;12.20;;
20417;SDS011;10368;51.436;6.774;2024-01-06T00:20:05;16.70;;;11.63;;
20417;SDS011;10368;51.436;6.774;2024-01-06T00:22:32;17.30;;;10.33;;
20417;SDS011;10368;51.436;6.774;2024-01-06T00:24:59;16.00;;;11.13;;
20417;SDS011;10368;51.436;6.774;2024-01-06T00:27:26;16.27;;;12.03;;
20417;SDS011;10368;51.436;6.774;2024-01-06T00:29:54;16.47;;;12.00;;
20417;SDS011;10368;51.436;6.774;2024-01-06T00:32:23;14.50;;;11.17;;
20417;SDS011;10368;51.436;6.774;2024-01-06T00:34:50;16.83;;;11.43;;
20417;SDS011;10368;51.436;6.774;2024-01-06T00:37:17;14.87;;;10.47;;
20417;SDS011;10368;51.436;6.774;2024-01-06T00:39:44;22.47;;;14.40;;
20417;SDS011;10368;51.436;6.774;2024-01-06T00:42:11;17.83;;;12.03;;
20417;SDS011;10368;51.436;6.774;2024-01-06T00:44:37;20.63;;;11.93;;
20417;SDS011;10368;51.436;6.774;2024-01-06T00:47:05;20.67;;;12.07;;
20417;SDS011;10368;51.436;6.774;2024-01-06T00:49:32;18.67;;;12.63;;
20417;SDS011;10368;51.436;6.774;2024-01-06T00:51:59;21.43;;;12.83;;
20417;SDS011;10368;51.436;6.774;2024-01-06T00:54:26;17.13;;;11.97;;
20417;SDS011;10368;51.436;6.774;2024-01-06T00:56:53;23.13;;;13.37;;
20417;SDS011;10368;51.436;6.774;2024-01-06T00:59:23;20.23;;;13.43;;
20417;SDS011;10368;51.436;6.774;2024-01-06T01:01:50;19.43;;;13.07;;
20417;SDS011;10368;51.436;6.774;2024-01-06T01:04:17;21.83;;;14.00;;
20417;SDS011;10368;51.436;6.774;2024-01-06T01:06:44;19.47;;;13.43;;
20417;SDS011;10368;51.436;6.774;2024-01-06T01:09:12;21.33;;;13.10;;
20417;SDS011;10368;51.436;6.774;2024-01-06T01:11:41;24.67;;;13.90;;
20417;SDS011;10368;51.436;6.774;2024-01-06T01:14:08;26.50;;;13.60;;
20417;SDS011;10368;51.436;6.774;2024-01-06T01:16:35;20.57;;;14.23;;
20417;SDS011;10368;51.436;6.774;2024-01-06T01:19:02;23.70;;;15.37;;
20417;SDS011;10368;51.436;6.774;2024-01-06T01:21:29;23.77;;;15.20;;
20417;SDS011;10368;51.436;6.774;2024-01-06T01:23:56;25.07;;;14.80;;
20417;SDS011;10368;51.436;6.774;2024-01-06T01:26:22;30.17;;;16.90;;
20417;SDS011;10368;51.436;6.774;2024-01-06T01:28:49;22.53;;;15.03;;
20417;SDS011;10368;51.436;6.774;2024-01-06T01:31:16;21.20;;;13.97;;
20417;SDS011;10368;51.436;6.774;2024-01-06T01:33:43;22.47;;;14.23;;
20417;SDS011;10368;51.436;6.774;2024-01-06T01:36:10;25.03;;;16.33;;
20417;SDS011;10368;51.436;6.774;2024-01-06T01:38:38;26.20;;;15.57;;
20417;SDS011;10368;51.436;6.774;2024-01-06T01:41:05;32.50;;;18.30;;
20417;SDS011;10368;51.436;6.774;2024-01-06T01:43:32;26.07;;;16.37;;
20417;SDS011;10368;51.436;6.774;2024-01-06T01:45:59;28.73;;;17.13;;
20417;SDS011;10368;51.436;6.774;2024-01-06T01:48:27;27.17;;;16.23;;
20417;SDS011;10368;51.436;6.774;2024-01-06T01:50:55;26.37;;;15.37;;
20417;SDS011;10368;51.436;6.774;2024-01-06T01:53:22;23.13;;;15.00;;
20417;SDS011;10368;51.436;6.774;2024-01-06T01:55:51;27.67;;;16.97;;
20417;SDS011;10368;51.436;6.774;2024-01-06T01:58:18;25.90;;;15.90;;
20417;SDS011;10368;51.436;6.774;2024-01-06T02:00:45;28.60;;;15.87;;
20417;SDS011;10368;51.436;6.774;2024-01-06T02:03:12;28.47;;;16.00;;
20417;SDS011;10368;51.436;6.774;2024-01-06T02:05:40;24.83;;;15.47;;
20417;SDS011;10368;51.436;6.774;2024-01-06T02:08:07;25.47;;;14.50;;
20417;SDS011;10368;51.436;6.774;2024-01-06T02:10:35;28.83;;;16.50;;
20417;SDS011;10368;51.436;6.774;2024-01-06T02:13:11;27.03;;;16.77;;
20417;SDS011;10368;51.436;6.774;2024-01-06T02:15:38;25.03;;;15.37;;
20417;SDS011;10368;51.436;6.774;2024-01-06T02:18:06;28.30;;;15.67;;
20417;SDS011;10368;51.436;6.774;2024-01-06T02:20:33;24.47;;;16.13;;
20417;SDS011;10368;51.436;6.774;2024-01-06T02:23:00;28.33;;;15.23;;
20417;SDS011;10368;51.436;6.774;2024-01-06T02:25:27;28.37;;;15.90;;
20417;SDS011;10368;51.436;6.774;2024-01-06T02:27:55;29.40;;;16.43;;
20417;SDS011;10368;51.436;6.774;2024-01-06T02:30:23;29.63;;;16.93;;
20417;SDS011;10368;51.436;6.774;2024-01-06T02:32:50;27.40;;;16.03;;
20417;SDS011;10368;51.436;6.774;2024-01-06T02:35:17;25.27;;;16.17;;
20417;SDS011;10368;51.436;6.774;2024-01-06T02:37:44;27.37;;;15.67;;
20417;SDS011;10368;51.436;6.774;2024-01-06T02:40:11;34.67;;;16.73;;
20417;SDS011;10368;51.436;6.774;2024-01-06T02:42:38;27.90;;;16.70;;
20417;SDS011;10368;51.436;6.774;2024-01-06T02:45:06;27.23;;;16.67;;
20417;SDS011;10368;51.436;6.774;2024-01-06T02:47:34;28.43;;;16.63;;
20417;SDS011;10368;51.436;6.774;2024-01-06T02:50:01;34.50;;;16.63;;
20417;SDS011;10368;51.436;6.774;2024-01-06T02:52:28;27.23;;;15.43;;
20417;SDS011;10368;51.436;6.774;2024-01-06T02:54:55;27.93;;;16.20;;
20417;SDS011;10368;51.436;6.774;2024-01-06T02:57:22;28.77;;;17.27;;
20417;SDS011;10368;51.436;6.774;2024-01-06T02:59:49;22.60;;;14.00;;
20417;SDS011;10368;51.436;6.774;2024-01-06T03:02:16;21.53;;;14.53;;
20417;SDS011;10368;51.436;6.774;2024-01-06T03:04:43;19.33;;;12.90;;
20417;SDS011;10368;51.436;6.774;2024-01-06T03:07:10;23.17;;;13.00;;
20417;SDS011;10368;51.436;6.774;2024-01-06T03:09:37;21.90;;;13.03;;
20417;SDS011;10368;51.436;6.774;2024-01-06T03:12:05;22.33;;;12.60;;
20417;SDS011;10368;51.436;6.774;2024-01-06T03:14:36;18.47;;;11.47;;
20417;SDS011;10368;51.436;6.774;2024-01-06T03:17:04;17.60;;;10.83;;
20417;SDS011;10368;51.436;6.774;2024-01-06T03:19:31;14.73;;;9.07;;
20417;SDS011;10368;51.436;6.774;2024-01-06T03:21:58;15.00;;;8.83;;
20417;SDS011;10368;51.436;6.774;2024-01-06T03:24:25;14.97;;;7.13;;
20417;SDS011;10368;51.436;6.774;2024-01-06T03:26:53;12.23;;;8.27;;
20417;SDS011;10368;51.436;6.774;2024-01-06T03:29:20;12.80;;;8.20;;
20417;SDS011;10368;51.436;6.774;2024-01-06T03:31:47;14.90;;;7.73;;
20417;SDS011;10368;51.436;6.774;2024-01-06T03:34:14;14.00;;;8.90;;
20417;SDS011;10368;51.436;6.774;2024-01-06T03:36:41;12.77;;;7.37;;
20417;SDS011;10368;51.436;6.774;2024-01-06T03:39:09;11.70;;;8.17;;
20417;SDS011;10368;51.436;6.774;2024-01-06T03:41:37;11.63;;;7.20;;
20417;SDS011;10368;51.436;6.774;2024-01-06T03:44:04;12.97;;;7.33;;
20417;SDS011;10368;51.436;6.774;2024-01-06T03:46:31;11.27;;;7.07;;
20417;SDS011;10368;51.436;6.774;2024-01-06T03:48:59;10.63;;;6.17;;
20417;SDS011;10368;51.436;6.774;2024-01-06T03:51:26;10.37;;;6.67;;
20417;SDS011;10368;51.436;6.774;2024-01-06T03:53:53;11.37;;;6.87;;
20417;SDS011;10368;51.436;6.774;2024-01-06T03:56:20;10.10;;;6.63;;
20417;SDS011;10368;51.436;6.774;2024-01-06T03:58:47;10.73;;;6.87;;
20417;SDS011;10368;51.436;6.774;2024-01-06T04:01:14;13.20;;;6.53;;
20417;SDS011;10368;51.436;6.774;2024-01-06T04:03:41;11.83;;;6.90;;
20417;SDS011;10368;51.436;6.774;2024-01-06T04:06:08;10.27;;;6.23;;
20417;SDS011;10368;51.436;6.774;2024-01-06T04:08:36;11.03;;;7.13;;
20417;SDS011;10368;51.436;6.774;2024-01-06T04:11:05;10.90;;;6.90;;
20417;SDS011;10368;51.436;6.774;2024-01-06T04:13:32;9.00;;;5.90;;
20417;SDS011;10368;51.436;6.774;2024-01-06T04:15:58;9.83;;;5.97;;
20417;SDS011;10368;51.436;6.774;2024-01-06T04:18:25;10.67;;;6.70;;
20417;SDS011;10368;51.436;6.774;2024-01-06T04:20:53;9.40;;;5.87;;
20417;SDS011;10368;51.436;6.774;2024-01-06T04:23:19;9.70;;;6.73;;
20417;SDS011;10368;51.436;6.774;2024-01-06T04:25:51;9.07;;;6.57;;
20417;SDS011;10368;51.436;6.774;2024-01-06T04:28:18;9.17;;;6.23;;
20417;SDS011;10368;51.436;6.774;2024-01-06T04:30:45;8.40;;;6.03;;
20417;SDS011;10368;51.436;6.774;2024-01-06T04:33:12;8.77;;;6.23;;
20417;SDS011;10368;51.436;6.774;2024-01-06T04:35:39;8.80;;;5.43;;
20417;SDS011;10368;51.436;6.774;2024-01-06T04:38:06;8.87;;;5.80;;
20417;SDS011;10368;51.436;6.774;2024-01-06T04:40:33;9.80;;;6.23;;
20417;SDS011;10368;51.436;6.774;2024-01-06T04:43:00;9.90;;;6.33;;
20417;SDS011;10368;51.436;6.774;2024-01-06T04:45:27;10.87;;;6.37;;
20417;SDS011;10368;51.436;6.774;2024-01-06T04:47:54;9.40;;;6.50;;
20417;SDS011;10368;51.436;6.774;2024-01-06T04:50:20;11.40;;;7.30;;
20417;SDS011;10368;51.436;6.774;2024-01-06T04:52:47;12.00;;;7.00;;
20417;SDS011;10368;51.436;6.774;2024-01-06T04:55:14;14.50;;;7.27;;
20417;SDS011;10368;51.436;6.774;2024-01-06T04:57:41;10.50;;;6.77;;
20417;SDS011;10368;51.436;6.774;2024-01-06T05:00:08;13.07;;;6.70;;
20417;SDS011;10368;51.436;6.774;2024-01-06T05:02:36;13.30;;;7.03;;
20417;SDS011;10368;51.436;6.774;2024-01-06T05:05:03;14.67;;;7.87;;
20417;SDS011;10368;51.436;6.774;2024-01-06T05:07:30;14.60;;;8.73;;
20417;SDS011;10368;51.436;6.774;2024-01-06T05:09:57;13.27;;;8.10;;
20417;SDS011;10368;51.436;6.774;2024-01-06T05:12:24;16.87;;;9.20;;
20417;SDS011;10368;51.436;6.774;2024-01-06T05:14:51;20.03;;;8.87;;
20417;SDS011;10368;51.436;6.774;2024-01-06T05:17:18;13.67;;;8.10;;
20417;SDS011;10368;51.436;6.774;2024-01-06T05:19:45;18.30;;;9.87;;
20417;SDS011;10368;51.436;6.774;2024-01-06T05:22:12;15.57;;;9.27;;
20417;SDS011;10368;51.436;6.774;2024-01-06T05:24:39;19.23;;;10.77;;
20417;SDS011;10368;51.436;6.774;2024-01-06T05:27:07;18.53;;;10.30;;
20417;SDS011;10368;51.436;6.774;2024-01-06T05:29:38;19.30;;;10.80;;
20417;SDS011;10368;51.436;6.774;2024-01-06T05:32:05;20.10;;;12.10;;
20417;SDS011;10368;51.436;6.774;2024-01-06T05:34:32;23.60;;;11.77;;
20417;SDS011;10368;51.436;6.774;2024-01-06T05:36:59;17.07;;;10.10;;
20417;SDS011;10368;51.436;6.774;2024-01-06T05:39:26;19.37;;;11.90;;
20417;SDS011;10368;51.436;6.774;2024-01-06T05:41:53;18.57;;;10.50;;
20417;SDS011;10368;51.436;6.774;2024-01-06T05:44:20;15.53;;;9.67;;
20417;SDS011;10368;51.436;6.774;2024-01-06T05:46:47;21.13;;;11.60;;
20417;SDS011;10368;51.436;6.774;2024-01-06T05:49:14;16.40;;;9.17;;
20417;SDS011;10368;51.436;6.774;2024-01-06T05:51:44;17.13;;;10.17;;
20417;SDS011;10368;51.436;6.774;2024-01-06T05:54:12;17.43;;;10.17;;
20417;SDS011;10368;51.436;6.774;2024-01-06T05:56:40;15.80;;;9.33;;
20417;SDS011;10368;51.436;6.774;2024-01-06T05:59:07;16.70;;;9.90;;
20417;SDS011;10368;51.436;6.774;2024-01-06T06:01:34;15.23;;;9.10;;
20417;SDS011;10368;51.436;6.774;2024-01-06T06:04:01;16.47;;;8.70;;
20417;SDS011;10368;51.436;6.774;2024-01-06T06:06:28;12.13;;;7.83;;
20417;SDS011;10368;51.436;6.774;2024-01-06T06:08:56;13.67;;;7.63;;
20417;SDS011;10368;51.436;6.774;2024-01-06T06:11:23;12.73;;;7.40;;
20417;SDS011;10368;51.436;6.774;2024-01-06T06:13:50;12.13;;;8.10;;
20417;SDS011;10368;51.436;6.774;2024-01-06T06:16:17;20.53;;;9.50;;
20417;SDS011;10368;51.436;6.774;2024-01-06T06:18:44;15.47;;;9.27;;
20417;SDS011;10368;51.436;6.774;2024-01-06T06:21:11;17.90;;;8.20;;
20417;SDS011;10368;51.436;6.774;2024-01-06T06:23:38;12.83;;;8.77;;
20417;SDS011;10368;51.436;6.774;2024-01-06T06:26:06;21.00;;;10.17;;
20417;SDS011;10368;51.436;6.774;2024-01-06T06:28:33;15.40;;;9.60;;
20417;SDS011;10368;51.436;6.774;2024-01-06T06:31:01;15.67;;;10.13;;
20417;SDS011;10368;51.436;6.774;2024-01-06T06:33:28;14.67;;;9.17;;
20417;SDS011;10368;51.436;6.774;2024-01-06T06:35:56;13.87;;;9.30;;
20417;SDS011;10368;51.436;6.774;2024-01-06T06:38:23;18.63;;;10.77;;
20417;SDS011;10368;51.436;6.774;2024-01-06T06:40:52;15.60;;;9.80;;
20417;SDS011;10368;51.436;6.774;2024-01-06T06:43:18;15.33;;;8.37;;
20417;SDS011;10368;51.436;6.774;2024-01-06T06:45:45;14.30;;;8.50;;
20417;SDS011;10368;51.436;6.774;2024-01-06T06:48:12;14.00;;;8.03;;
20417;SDS011;10368;51.436;6.774;2024-01-06T06:50:39;11.63;;;8.17;;
20417;SDS011;10368;51.436;6.774;2024-01-06T06:53:09;12.00;;;7.70;;
20417;SDS011;10368;51.436;6.774;2024-01-06T06:55:36;17.97;;;9.17;;
20417;SDS011;10368;51.436;6.774;2024-01-06T06:58:04;12.70;;;8.30;;
20417;SDS011;10368;51.436;6.774;2024-01-06T07:00:32;12.60;;;8.07;;
20417;SDS011;10368;51.436;6.774;2024-01-06T07:02:59;15.97;;;9.30;;
20417;SDS011;10368;51.436;6.774;2024-01-06T07:05:26;15.77;;;8.80;;
20417;SDS011;10368;51.436;6.774;2024-01-06T07:07:54;16.33;;;8.53;;
20417;SDS011;10368;51.436;6.774;2024-01-06T07:10:21;13.57;;;8.03;;
20417;SDS011;10368;51.436;6.774;2024-01-06T07:12:48;15.13;;;8.43;;
20417;SDS011;10368;51.436;6.774;2024-01-06T07:15:16;32.53;;;13.63;;
20417;SDS011;10368;51.436;6.774;2024-01-06T07:17:43;53.07;;;17.93;;
20417;SDS011;10368;51.436;6.774;2024-01-06T07:20:10;39.70;;;16.97;;
20417;SDS011;10368;51.436;6.774;2024-01-06T07:22:37;35.97;;;16.57;;
20417;SDS011;10368;51.436;6.774;2024-01-06T07:25:04;34.77;;;12.73;;
20417;SDS011;10368;51.436;6.774;2024-01-06T07:27:32;21.43;;;11.07;;
20417;SDS011;10368;51.436;6.774;2024-01-06T07:29:59;20.00;;;10.90;;
20417;SDS011;10368;51.436;6.774;2024-01-06T07:32:26;16.93;;;9.80;;
20417;SDS011;10368;51.436;6.774;2024-01-06T07:34:53;19.07;;;9.57;;
20417;SDS011;10368;51.436;6.774;2024-01-06T07:37:20;15.97;;;9.27;;
20417;SDS011;10368;51.436;6.774;2024-01-06T07:39:47;15.47;;;9.53;;
20417;SDS011;10368;51.436;6.774;2024-01-06T07:42:14;16.97;;;9.57;;
20417;SDS011;10368;51.436;6.774;2024-01-06T07:44:41;17.77;;;9.87;;
20417;SDS011;10368;51.436;6.774;2024-01-06T07:47:08;19.23;;;9.07;;
20417;SDS011;10368;51.436;6.774;2024-01-06T07:49:35;20.77;;;9.77;;
20417;SDS011;10368;51.436;6.774;2024-01-06T07:52:03;19.33;;;9.53;;
20417;SDS011;10368;51.436;6.774;2024-01-06T07:54:30;17.63;;;8.23;;
20417;SDS011;10368;51.436;6.774;2024-01-06T07:56:57;18.17;;;9.63;;
20417;SDS011;10368;51.436;6.774;2024-01-06T07:59:24;16.20;;;8.77;;
20417;SDS011;10368;51.436;6.774;2024-01-06T08:01:51;11.77;;;7.47;;
20417;SDS011;10368;51.436;6.774;2024-01-06T08:04:18;14.13;;;8.43;;
20417;SDS011;10368;51.436;6.774;2024-01-06T08:06:44;15.40;;;9.03;;
20417;SDS011;10368;51.436;6.774;2024-01-06T08:09:12;16.57;;;9.63;;
20417;SDS011;10368;51.436;6.774;2024-01-06T08:11:39;14.90;;;8.57;;
20417;SDS011;10368;51.436;6.774;2024-01-06T08:14:06;18.37;;;10.80;;
20417;SDS011;10368;51.436;6.774;2024-01-06T08:16:33;17.47;;;11.07;;
20417;SDS011;10368;51.436;6.774;2024-01-06T08:19:00;19.90;;;11.77;;
20417;SDS011;10368;51.436;6.774;2024-01-06T08:21:27;29.30;;;14.30;;
20417;SDS011;10368;51.436;6.774;2024-01-06T08:23:54;27.53;;;13.70;;
20417;SDS011;10368;51.436;6.774;2024-01-06T08:26:22;36.57;;;15.90;;
20417;SDS011;10368;51.436;6.774;2024-01-06T08:28:49;33.50;;;15.57;;
20417;SDS011;10368;51.436;6.774;2024-01-06T08:31:16;38.00;;;15.90;;
20417;SDS011;10368;51.436;6.774;2024-01-06T08:33:43;46.77;;;17.27;;
20417;SDS011;10368;51.436;6.774;2024-01-06T08:36:10;42.90;;;17.87;;
20417;SDS011;10368;51.436;6.774;2024-01-06T08:38:37;36.33;;;15.47;;
20417;SDS011;10368;51.436;6.774;2024-01-06T08:41:04;37.23;;;16.87;;
20417;SDS011;10368;51.436;6.774;2024-01-06T08:43:31;35.37;;;17.17;;
20417;SDS011;10368;51.436;6.774;2024-01-06T08:45:58;46.17;;;17.47;;
20417;SDS011;10368;51.436;6.774;2024-01-06T08:48:25;39.07;;;16.60;;
20417;SDS011;10368;51.436;6.774;2024-01-06T08:50:52;42.13;;;18.40;;
20417;SDS011;10368;51.436;6.774;2024-01-06T08:53:19;40.10;;;17.70;;
20417;SDS011;10368;51.436;6.774;2024-01-06T08:55:47;38.07;;;17.13;;
20417;SDS011;10368;51.436;6.774;2024-01-06T08:58:14;44.10;;;17.47;;
20417;SDS011;10368;51.436;6.774;2024-01-06T09:00:41;44.03;;;18.63;;
20417;SDS011;10368;51.436;6.774;2024-01-06T09:03:09;41.90;;;18.07;;
20417;SDS011;10368;51.436;6.774;2024-01-06T09:05:39;39.47;;;17.47;;
20417;SDS011;10368;51.436;6.774;2024-01-06T09:08:06;40.23;;;15.50;;
20417;SDS011;10368;51.436;6.774;2024-01-06T09:10:33;32.83;;;16.20;;
20417;SDS011;10368;51.436;6.774;2024-01-06T09:13:00;40.43;;;16.87;;
20417;SDS011;10368;51.436;6.774;2024-01-06T09:15:28;40.73;;;16.43;;
20417;SDS011;10368;51.436;6.774;2024-01-06T09:17:55;33.07;;;13.17;;
20417;SDS011;10368;51.436;6.774;2024-01-06T09:20:23;27.87;;;14.67;;
20417;SDS011;10368;51.436;6.774;2024-01-06T09:22:50;29.53;;;13.57;;
20417;SDS011;10368;51.436;6.774;2024-01-06T09:25:18;30.67;;;14.03;;
20417;SDS011;10368;51.436;6.774;2024-01-06T09:27:45;32.60;;;15.20;;
20417;SDS011;10368;51.436;6.774;2024-01-06T09:30:13;33.93;;;13.63;;
20417;SDS011;10368;51.436;6.774;2024-01-06T09:32:40;22.10;;;11.47;;
20417;SDS011;10368;51.436;6.774;2024-01-06T09:35:07;30.20;;;14.37;;
20417;SDS011;10368;51.436;6.774;2024-01-06T09:37:35;31.53;;;13.40;;
20417;SDS011;10368;51.436;6.774;2024-01-06T09:40:02;25.47;;;12.57;;
20417;SDS011;10368;51.436;6.774;2024-01-06T09:42:30;23.63;;;11.97;;
20417;SDS011;10368;51.436;6.774;2024-01-06T09:44:57;28.37;;;13.40;;
20417;SDS011;10368;51.436;6.774;2024-01-06T09:47:24;25.13;;;12.67;;
20417;SDS011;10368;51.436;6.774;2024-01-06T09:49:53;27.63;;;11.80;;
20417;SDS011;10368;51.436;6.774;2024-01-06T09:52:22;21.67;;;11.03;;
20417;SDS011;10368;51.436;6.774;2024-01-06T09:54:53;19.90;;;9.20;;
20417;SDS011;10368;51.436;6.774;2024-01-06T09:57:22;20.67;;;10.30;;
20417;SDS011;10368;51.436;6.774;2024-01-06T09:59:50;16.93;;;9.53;;
20417;SDS011;10368;51.436;6.774;2024-01-06T10:02:17;17.67;;;8.93;;
20417;SDS011;10368;51.436;6.774;2024-01-06T10:04:46;17.10;;;8.97;;
20417;SDS011;10368;51.436;6.774;2024-01-06T10:07:14;16.30;;;9.30;;
20417;SDS011;10368;51.436;6.774;2024-01-06T10:09:41;18.83;;;10.77;;
20417;SDS011;10368;51.436;6.774;2024-01-06T10:12:09;18.50;;;9.07;;
20417;SDS011;10368;51.436;6.774;2024-01-06T10:14:37;25.87;;;10.93;;
20417;SDS011;10368;51.436;6.774;2024-01-06T10:17:06;21.97;;;9.70;;
20417;SDS011;10368;51.436;6.774;2024-01-06T10:19:34;17.90;;;10.27;;
20417;SDS011;10368;51.436;6.774;2024-01-06T10:22:04;18.20;;;9.80;;
20417;SDS011;10368;51.436;6.774;2024-01-06T10:24:34;19.67;;;10.53;;
20417;SDS011;10368;51.436;6.774;2024-01-06T10:27:04;18.73;;;10.37;;
20417;SDS011;10368;51.436;6.774;2024-01-06T10:29:31;20.00;;;10.90;;
20417;SDS011;10368;51.436;6.774;2024-01-06T10:31:58;20.23;;;11.00;;
20417;SDS011;10368;51.436;6.774;2024-01-06T10:34:25;27.10;;;11.27;;
20417;SDS011;10368;51.436;6.774;2024-01-06T10:36:53;19.83;;;10.57;;
20417;SDS011;10368;51.436;6.774;2024-01-06T10:39:20;21.67;;;11.03;;
20417;SDS011;10368;51.436;6.774;2024-01-06T10:41:48;18.93;;;9.50;;
20417;SDS011;10368;51.436;6.774;2024-01-06T10:44:15;18.93;;;10.73;;
20417;SDS011;10368;51.436;6.774;2024-01-06T10:46:43;20.03;;;10.07;;
20417;SDS011;10368;51.436;6.774;2024-01-06T10:49:11;20.80;;;10.83;;
20417;SDS011;10368;51.436;6.774;2024-01-06T10:51:40;27.10;;;13.77;;
20417;SDS011;10368;51.436;6.774;2024-01-06T10:54:07;29.80;;;14.83;;
20417;SDS011;10368;51.436;6.774;2024-01-06T10:56:38;24.70;;;13.90;;
20417;SDS011;10368;51.436;6.774;2024-01-06T10:59:05;26.63;;;12.77;;
20417;SDS011;10368;51.436;6.774;2024-01-06T11:01:34;37.47;;;12.83;;
20417;SDS011;10368;51.436;6.774;2024-01-06T11:04:02;26.77;;;12.57;;
20417;SDS011;10368;51.436;6.774;2024-01-06T11:06:31;26.90;;;13.37;;
20417;SDS011;10368;51.436;6.774;2024-01-06T11:09:04;29.90;;;12.87;;
20417;SDS011;10368;51.436;6.774;2024-01-06T11:11:39;26.33;;;12.40;;
20417;SDS011;10368;51.436;6.774;2024-01-06T11:16:46;25.43;;;13.53;;
20417;SDS011;10368;51.436;6.774;2024-01-06T11:24:47;36.30;;;16.50;;
20417;SDS011;10368;51.436;6.774;2024-01-06T11:27:25;38.03;;;16.17;;
20417;SDS011;10368;51.436;6.774;2024-01-06T11:29:56;37.87;;;15.33;;
20417;SDS011;10368;51.436;6.774;2024-01-06T11:35:11;25.97;;;13.63;;
20417;SDS011;10368;51.436;6.774;2024-01-06T11:42:41;28.73;;;12.43;;
20417;SDS011;10368;51.436;6.774;2024-01-06T11:45:08;29.70;;;13.50;;
20417;SDS011;10368;51.436;6.774;2024-01-06T11:47:35;26.73;;;12.87;;
20417;SDS011;10368;51.436;6.774;2024-01-06T11:50:03;24.40;;;12.10;;
20417;SDS011;10368;51.436;6.774;2024-01-06T11:52:31;32.97;;;12.47;;
20417;SDS011;10368;51.436;6.774;2024-01-06T11:55:00;33.17;;;13.90;;
20417;SDS011;10368;51.436;6.774;2024-01-06T11:57:27;26.23;;;12.63;;
20417;SDS011;10368;51.436;6.774;2024-01-06T11:59:55;32.60;;;13.30;;
20417;SDS011;10368;51.436;6.774;2024-01-06T12:02:22;27.47;;;12.30;;
20417;SDS011;10368;51.436;6.774;2024-01-06T12:04:49;24.77;;;11.43;;
20417;SDS011;10368;51.436;6.774;2024-01-06T12:07:20;23.97;;;12.13;;
20417;SDS011;10368;51.436;6.774;2024-01-06T12:09:51;30.77;;;13.97;;
20417;SDS011;10368;51.436;6.774;2024-01-06T12:12:27;24.90;;;12.50;;
20417;SDS011;10368;51.436;6.774;2024-01-06T12:14:53;26.93;;;13.30;;
20417;SDS011;10368;51.436;6.774;2024-01-06T12:17:21;23.57;;;13.07;;
20417;SDS011;10368;51.436;6.774;2024-01-06T12:19:48;26.33;;;11.57;;
20417;SDS011;10368;51.436;6.774;2024-01-06T12:22:15;28.73;;;14.03;;
20417;SDS011;10368;51.436;6.774;2024-01-06T12:24:42;21.47;;;11.67;;
20417;SDS011;10368;51.436;6.774;2024-01-06T12:27:10;32.97;;;14.23;;
20417;SDS011;10368;51.436;6.774;2024-01-06T12:29:38;33.47;;;11.90;;
20417;SDS011;10368;51.436;6.774;2024-01-06T12:32:06;23.63;;;11.77;;
20417;SDS011;10368;51.436;6.774;2024-01-06T12:34:35;24.67;;;12.57;;
20417;SDS011;10368;51.436;6.774;2024-01-06T12:37:02;23.50;;;11.77;;
20417;SDS011;10368;51.436;6.774;2024-01-06T12:39:30;27.63;;;12.93;;
20417;SDS011;10368;51.436;6.774;2024-01-06T12:41:58;28.43;;;12.53;;
20417;SDS011;10368;51.436;6.774;2024-01-06T12:44:27;25.93;;;11.73;;
20417;SDS011;10368;51.436;6.774;2024-01-06T12:46:54;27.13;;;12.13;;
20417;SDS011;10368;51.436;6.774;2024-01-06T12:49:22;34.63;;;14.27;;
20417;SDS011;10368;51.436;6.774;2024-01-06T12:51:49;32.50;;;15.10;;
20417;SDS011;10368;51.436;6.774;2024-01-06T12:54:17;30.30;;;13.60;;
20417;SDS011;10368;51.436;6.774;2024-01-06T12:56:44;29.63;;;13.33;;
20417;SDS011;10368;51.436;6.774;2024-01-06T12:59:11;32.30;;;13.70;;
20417;SDS011;10368;51.436;6.774;2024-01-06T13:01:38;29.43;;;14.97;;
20417;SDS011;10368;51.436;6.774;2024-01-06T13:04:05;28.57;;;13.77;;
20417;SDS011;10368;51.436;6.774;2024-01-06T13:06:32;25.37;;;12.47;;
20417;SDS011;10368;51.436;6.774;2024-01-06T13:09:01;23.47;;;12.50;;
20417;SDS011;10368;51.436;6.774;2024-01-06T13:11:33;18.07;;;10.40;;
20417;SDS011;10368;51.436;6.774;2024-01-06T13:14:02;22.73;;;12.70;;
20417;SDS011;10368;51.436;6.774;2024-01-06T13:16:29;21.70;;;11.53;;
20417;SDS011;10368;51.436;6.774;2024-01-06T13:18:56;24.90;;;11.43;;
20417;SDS011;10368;51.436;6.774;2024-01-06T13:21:24;17.57;;;9.83;;
20417;SDS011;10368;51.436;6.774;2024-01-06T13:23:51;20.70;;;10.40;;
20417;SDS011;10368;51.436;6.774;2024-01-06T13:26:18;20.83;;;11.50;;
20417;SDS011;10368;51.436;6.774;2024-01-06T13:28:45;19.20;;;9.37;;
20417;SDS011;10368;51.436;6.774;2024-01-06T13:31:13;21.33;;;10.80;;
20417;SDS011;10368;51.436;6.774;2024-01-06T13:33:40;18.87;;;9.87;;
20417;SDS011;10368;51.436;6.774;2024-01-06T13:36:08;17.87;;;9.87;;
20417;SDS011;10368;51.436;6.774;2024-01-06T13:38:36;21.70;;;11.13;;
20417;SDS011;10368;51.436;6.774;2024-01-06T13:41:03;17.20;;;9.10;;
20417;SDS011;10368;51.436;6.774;2024-01-06T13:43:30;17.27;;;10.67;;
20417;SDS011;10368;51.436;6.774;2024-01-06T13:45:58;16.13;;;9.67;;
20417;SDS011;10368;51.436;6.774;2024-01-06T13:48:26;16.13;;;10.93;;
20417;SDS011;10368;51.436;6.774;2024-01-06T13:50:53;20.00;;;9.63;;
20417;SDS011;10368;51.436;6.774;2024-01-06T13:53:20;16.27;;;9.10;;
20417;SDS011;10368;51.436;6.774;2024-01-06T13:55:47;16.53;;;9.27;;
20417;SDS011;10368;51.436;6.774;2024-01-06T13:58:14;20.27;;;10.13;;
20417;SDS011;10368;51.436;6.774;2024-01-06T14:00:42;19.90;;;10.17;;
20417;SDS011;10368;51.436;6.774;2024-01-06T14:03:10;18.07;;;10.23;;
20417;SDS011;10368;51.436;6.774;2024-01-06T14:05:37;18.77;;;10.30;;
20417;SDS011;10368;51.436;6.774;2024-01-06T14:08:06;19.00;;;10.67;;
20417;SDS011;10368;51.436;6.774;2024-01-06T14:10:33;18.63;;;10.03;;
20417;SDS011;10368;51.436;6.774;2024-01-06T14:13:00;18.33;;;9.77;;
20417;SDS011;10368;51.436;6.774;2024-01-06T14:15:27;20.07;;;10.20;;
20417;SDS011;10368;51.436;6.774;2024-01-06T14:17:56;21.13;;;10.57;;
20417;SDS011;10368;51.436;6.774;2024-01-06T14:20:24;18.97;;;10.97;;
20417;SDS011;10368;51.436;6.774;2024-01-06T14:22:50;31.80;;;13.17;;
20417;SDS011;10368;51.436;6.774;2024-01-06T14:25:17;26.43;;;12.33;;
20417;SDS011;10368;51.436;6.774;2024-01-06T14:27:45;27.43;;;13.63;;
20417;SDS011;10368;51.436;6.774;2024-01-06T14:30:12;37.07;;;14.40;;
20417;SDS011;10368;51.436;6.774;2024-01-06T14:32:39;29.90;;;14.07;;
20417;SDS011;10368;51.436;6.774;2024-01-06T14:35:07;23.43;;;13.47;;
20417;SDS011;10368;51.436;6.774;2024-01-06T14:37:37;28.47;;;14.37;;
20417;SDS011;10368;51.436;6.774;2024-01-06T14:40:06;26.13;;;14.03;;
20417;SDS011;10368;51.436;6.774;2024-01-06T14:42:34;29.37;;;15.80;;